Time,TemperatureF,DewpointF,PressureIn,WindDirection,WindDirectionDegrees,WindSpeedMPH,WindSpeedGustMPH,Humidity,HourlyPrecipIn,Conditions,Clouds,dailyrainin,SoftwareType,DateUTC
2013-06-23 07:52:00,66.6,55.3,29.62,SSW,202,0.0,0.0,67,0.00,,---,0.01,VWS V14.00,2013-06-23 12:52:00,
2013-06-23 07:53:00,65.8,56.9,29.65,SW,229,0.0,0.0,73,0.13,,---,0.00,VWS V14.00,2013-06-23 12:53:00,
2013-06-23 07:57:00,65.8,57.7,29.65,SW,229,0.0,0.0,75,0.13,,---,0.00,VWS V14.00,2013-06-23 12:57:00,
2013-06-23 07:58:00,65.8,57.7,29.65,SW,229,0.0,0.0,75,0.13,,---,0.00,VWS V14.00,2013-06-23 12:58:00,
2013-06-23 08:03:00,66.0,57.5,29.64,SW,229,0.0,0.0,74,0.13,,---,0.00,VWS V14.00,2013-06-23 13:03:00,
2013-06-23 08:08:00,66.3,57.0,29.64,SW,229,0.0,0.0,72,0.13,,---,0.00,VWS V14.00,2013-06-23 13:08:00,
2013-06-23 08:13:00,66.6,56.9,29.64,SW,229,0.0,0.0,71,0.13,,---,0.00,VWS V14.00,2013-06-23 13:13:00,
2013-06-23 08:14:00,66.6,56.9,29.64,SW,229,0.0,0.0,71,0.13,,---,0.00,VWS V14.00,2013-06-23 13:14:00,
2013-06-23 08:18:00,66.8,57.1,29.64,SW,229,0.0,0.0,71,0.13,,---,0.00,VWS V14.00,2013-06-23 13:18:00,
2013-06-23 08:19:00,66.8,56.7,29.64,SW,229,0.0,0.0,70,0.13,,---,0.00,VWS V14.00,2013-06-23 13:19:00,
2013-06-23 08:23:00,66.9,57.2,29.64,SW,229,0.0,0.0,71,0.13,,---,0.00,VWS V14.00,2013-06-23 13:23:00,
2013-06-23 08:24:00,66.9,57.2,29.64,SW,229,0.0,0.0,71,0.13,,---,0.00,VWS V14.00,2013-06-23 13:24:00,
2013-06-23 08:28:00,67.1,56.6,29.64,SW,229,0.0,0.0,69,0.13,,---,0.00,VWS V14.00,2013-06-23 13:28:00,
2013-06-23 08:29:00,67.1,56.6,29.64,SW,229,0.0,0.0,69,0.13,,---,0.00,VWS V14.00,2013-06-23 13:29:00,
2013-06-23 08:33:00,67.3,57.2,29.64,SW,229,0.0,0.0,70,0.00,,---,0.00,VWS V14.00,2013-06-23 13:33:00,
2013-06-23 08:34:00,67.3,57.2,29.64,SW,229,0.0,0.0,70,0.00,,---,0.00,VWS V14.00,2013-06-23 13:34:00,
2013-06-23 08:35:00,67.3,57.2,29.64,SW,229,0.0,0.0,70,0.00,,---,0.00,VWS V14.00,2013-06-23 13:35:00,
2013-06-23 08:39:00,67.6,57.5,29.64,SW,229,0.0,0.0,70,0.00,,---,0.00,VWS V14.00,2013-06-23 13:39:00,
2013-06-23 08:40:00,67.6,57.5,29.64,SW,229,0.0,0.0,70,0.00,,---,0.00,VWS V14.00,2013-06-23 13:40:00,
2013-06-23 08:44:00,67.9,57.4,29.65,SW,229,0.0,0.0,69,0.00,,---,0.00,VWS V14.00,2013-06-23 13:44:00,
2013-06-23 08:45:00,67.9,57.4,29.65,SW,229,0.0,0.0,69,0.00,,---,0.00,VWS V14.00,2013-06-23 13:45:00,
2013-06-23 08:49:00,68.1,57.6,29.65,SW,229,0.0,0.0,69,0.00,,---,0.00,VWS V14.00,2013-06-23 13:49:00,
2013-06-23 08:50:00,68.1,57.6,29.65,SW,229,0.0,0.0,69,0.00,,---,0.00,VWS V14.00,2013-06-23 13:50:00,
2013-06-23 08:54:00,68.3,57.8,29.65,SW,229,0.0,0.0,69,0.00,,---,0.00,VWS V14.00,2013-06-23 13:54:00,
2013-06-23 08:55:00,68.3,58.2,29.65,SW,229,0.0,0.0,70,0.00,,---,0.00,VWS V14.00,2013-06-23 13:55:00,
2013-06-23 08:59:00,68.6,58.8,29.66,SW,229,0.0,0.0,71,0.00,,---,0.00,VWS V14.00,2013-06-23 13:59:00,
2013-06-23 09:02:00,69.3,59.1,29.66,SW,229,0.0,0.0,70,0.00,,---,0.00,VWS V14.00,2013-06-23 14:02:00,
2013-06-23 09:04:00,69.6,59.8,29.66,SW,229,0.0,0.0,71,0.00,,---,0.00,VWS V14.00,2013-06-23 14:04:00,
2013-06-23 09:05:00,69.8,59.6,29.66,SW,229,0.0,0.0,70,0.00,,---,0.00,VWS V14.00,2013-06-23 14:05:00,
2013-06-23 09:07:00,70.4,58.9,29.66,SW,229,0.0,0.0,67,0.00,,---,0.00,VWS V14.00,2013-06-23 14:07:00,
2013-06-23 09:08:00,70.4,58.9,29.66,SW,229,0.0,0.0,67,0.00,,---,0.00,VWS V14.00,2013-06-23 14:08:00,
2013-06-23 09:10:00,70.6,59.1,29.66,SW,229,0.0,0.0,67,0.00,,---,0.00,VWS V14.00,2013-06-23 14:10:00,
2013-06-23 09:12:00,70.8,58.0,29.66,SW,229,0.0,0.0,64,0.00,,---,0.00,VWS V14.00,2013-06-23 14:12:00,
2013-06-23 09:13:00,70.8,58.0,29.66,SW,229,0.0,0.0,64,0.00,,---,0.00,VWS V14.00,2013-06-23 14:13:00,
2013-06-23 09:15:00,70.9,58.1,29.66,SW,229,0.0,0.0,64,0.00,,---,0.00,VWS V14.00,2013-06-23 14:15:00,
2013-06-23 09:17:00,71.1,58.3,29.66,SW,229,0.0,0.0,64,0.00,,---,0.00,VWS V14.00,2013-06-23 14:17:00,
2013-06-23 09:18:00,71.1,58.3,29.66,SW,229,0.0,0.0,64,0.00,,---,0.00,VWS V14.00,2013-06-23 14:18:00,
2013-06-23 09:20:00,71.6,58.3,29.66,SW,229,0.0,0.0,63,0.00,,---,0.00,VWS V14.00,2013-06-23 14:20:00,
2013-06-23 09:23:00,72.5,59.2,29.66,SW,229,0.0,0.0,63,0.00,,---,0.00,VWS V14.00,2013-06-23 14:23:00,
2013-06-23 09:25:00,73.0,58.8,29.66,SW,229,0.0,0.0,61,0.00,,---,0.00,VWS V14.00,2013-06-23 14:25:00,
2013-06-23 09:26:00,73.3,59.0,29.66,SW,229,0.0,0.0,61,0.00,,---,0.00,VWS V14.00,2013-06-23 14:26:00,
2013-06-23 09:28:00,73.9,57.7,29.66,SW,229,0.0,0.0,57,0.00,,---,0.00,VWS V14.00,2013-06-23 14:28:00,
2013-06-23 09:30:00,74.0,57.3,29.65,SW,229,0.0,0.0,56,0.00,,---,0.00,VWS V14.00,2013-06-23 14:30:00,
2013-06-23 09:31:00,74.0,57.3,29.65,SW,229,0.0,0.0,56,0.00,,---,0.00,VWS V14.00,2013-06-23 14:31:00,
2013-06-23 09:33:00,74.4,57.7,29.65,SW,229,0.0,0.0,56,0.00,,---,0.00,VWS V14.00,2013-06-23 14:33:00,
2013-06-23 09:34:00,74.4,57.7,29.65,SW,229,0.0,0.0,56,0.00,,---,0.00,VWS V14.00,2013-06-23 14:34:00,
2013-06-23 09:35:00,75.1,58.3,29.65,SW,229,0.0,0.0,56,0.00,,---,0.00,VWS V14.00,2013-06-23 14:35:00,
2013-06-23 09:36:00,75.1,58.3,29.65,SW,229,0.0,0.0,56,0.00,,---,0.00,VWS V14.00,2013-06-23 14:36:00,
2013-06-23 09:38:00,75.8,59.0,29.65,SW,229,0.0,0.0,56,0.00,,---,0.00,VWS V14.00,2013-06-23 14:38:00,
2013-06-23 09:40:00,76.0,57.1,29.65,SW,229,0.0,0.0,52,0.00,,---,0.00,VWS V14.00,2013-06-23 14:40:00,
2013-06-23 09:41:00,76.1,57.2,29.65,SW,229,0.0,0.0,52,0.00,,---,0.00,VWS V14.00,2013-06-23 14:41:00,
2013-06-23 09:43:00,76.7,57.2,29.65,SW,229,0.0,0.0,51,0.00,,---,0.00,VWS V14.00,2013-06-23 14:43:00,
2013-06-23 09:45:00,77.0,57.5,29.63,SW,229,0.0,0.0,51,0.00,,---,0.00,VWS V14.00,2013-06-23 14:45:00,
2013-06-23 09:46:00,77.0,57.5,29.63,SW,229,0.0,0.0,51,0.00,,---,0.00,VWS V14.00,2013-06-23 14:46:00,
2013-06-23 09:48:00,77.9,57.8,29.63,SW,229,0.0,0.0,50,0.00,,---,0.00,VWS V14.00,2013-06-23 14:48:00,
2013-06-23 09:50:00,78.5,56.6,29.63,SW,229,0.0,0.0,47,0.00,,---,0.00,VWS V14.00,2013-06-23 14:50:00,
2013-06-23 09:51:00,78.6,54.9,29.63,SW,229,0.0,0.0,44,0.00,,---,0.00,VWS V14.00,2013-06-23 14:51:00,
2013-06-23 09:53:00,79.2,54.8,29.63,SW,229,0.0,0.0,43,0.00,,---,0.00,VWS V14.00,2013-06-23 14:53:00,
2013-06-23 09:55:00,79.6,53.8,29.63,SW,229,0.0,0.0,41,0.00,,---,0.00,VWS V14.00,2013-06-23 14:55:00,
2013-06-23 09:56:00,79.8,54.0,29.63,SW,229,0.0,0.0,41,0.00,,---,0.00,VWS V14.00,2013-06-23 14:56:00,
2013-06-23 09:58:00,80.3,57.0,29.62,SW,229,0.0,0.0,45,0.00,,---,0.00,VWS V14.00,2013-06-23 14:58:00,
2013-06-23 10:01:00,80.7,54.8,29.62,SW,229,0.0,0.0,41,0.00,,---,0.00,VWS V14.00,2013-06-23 15:01:00,
2013-06-23 10:02:00,80.7,54.8,29.62,SW,229,0.0,0.0,41,0.00,,---,0.00,VWS V14.00,2013-06-23 15:02:00,
2013-06-23 10:04:00,80.9,54.3,29.62,SSW,196,0.0,0.0,40,0.00,,---,0.00,VWS V14.00,2013-06-23 15:04:00,
2013-06-23 10:06:00,80.9,54.3,29.62,SW,229,0.0,0.0,40,0.00,,---,0.00,VWS V14.00,2013-06-23 15:06:00,
2013-06-23 10:07:00,80.7,54.2,29.62,SSW,209,1.0,8.0,40,0.00,,---,0.00,VWS V14.00,2013-06-23 15:07:00,
2013-06-23 10:09:00,80.7,52.8,29.62,SSW,205,1.0,8.0,38,0.00,,---,0.00,VWS V14.00,2013-06-23 15:09:00,
2013-06-23 10:11:00,80.7,54.2,29.62,SW,215,0.0,8.0,40,0.00,,---,0.00,VWS V14.00,2013-06-23 15:11:00,
2013-06-23 10:12:00,80.7,52.8,29.62,SW,215,0.0,8.0,38,0.00,,---,0.00,VWS V14.00,2013-06-23 15:12:00,
2013-06-23 10:14:00,80.9,54.3,29.65,SW,215,0.0,8.0,40,0.00,,---,0.00,VWS V14.00,2013-06-23 15:14:00,
2013-06-23 10:16:00,80.9,54.3,29.65,SSW,209,0.0,8.0,40,0.00,,---,0.00,VWS V14.00,2013-06-23 15:16:00,
2013-06-23 10:17:00,80.9,54.3,29.65,SSW,209,0.0,8.0,40,0.00,,---,0.00,VWS V14.00,2013-06-23 15:17:00,
2013-06-23 10:19:00,81.1,55.9,29.65,SSW,209,0.0,8.0,42,0.00,,---,0.00,VWS V14.00,2013-06-23 15:19:00,
2013-06-23 10:20:00,81.1,55.9,29.65,West,277,8.0,8.0,42,0.00,,---,0.00,VWS V14.00,2013-06-23 15:20:00,
2013-06-23 10:21:00,81.1,55.9,29.65,South,188,1.0,8.0,42,0.00,,---,0.00,VWS V14.00,2013-06-23 15:21:00,
2013-06-23 10:22:00,81.1,56.5,29.65,South,181,1.0,8.0,43,0.00,,---,0.00,VWS V14.00,2013-06-23 15:22:00,
2013-06-23 10:24:00,81.1,57.2,29.65,South,188,0.0,8.0,44,0.00,,---,0.00,VWS V14.00,2013-06-23 15:24:00,
2013-06-23 10:25:00,81.1,57.2,29.65,SSW,192,0.0,8.0,44,0.00,,---,0.00,VWS V14.00,2013-06-23 15:25:00,
2013-06-23 10:26:00,81.1,54.5,29.65,SW,229,1.0,8.0,40,0.00,,---,0.00,VWS V14.00,2013-06-23 15:26:00,
2013-06-23 10:27:00,81.1,54.5,29.65,SW,229,0.0,8.0,40,0.00,,---,0.00,VWS V14.00,2013-06-23 15:27:00,
2013-06-23 10:32:00,81.2,55.3,29.65,SW,227,0.0,2.0,41,0.00,,---,0.00,VWS V14.00,2013-06-23 15:32:00,
2013-06-23 10:33:00,81.2,54.6,29.65,South,181,0.0,5.0,40,0.00,,---,0.00,VWS V14.00,2013-06-23 15:33:00,
2013-06-23 10:34:00,81.2,56.0,29.65,SW,236,1.0,5.0,42,0.00,,---,0.00,VWS V14.00,2013-06-23 15:34:00,
2013-06-23 10:37:00,81.1,55.2,29.65,SSW,192,2.0,5.0,41,0.00,,---,0.00,VWS V14.00,2013-06-23 15:37:00,
2013-06-23 10:38:00,81.1,56.5,29.65,SSW,199,0.0,5.0,43,0.00,,---,0.00,VWS V14.00,2013-06-23 15:38:00,
2013-06-23 10:39:00,81.2,54.6,29.65,South,184,0.0,5.0,40,0.00,,---,0.00,VWS V14.00,2013-06-23 15:39:00,
2013-06-23 10:42:00,81.2,55.3,29.65,SW,232,0.0,5.0,41,0.00,,---,0.00,VWS V14.00,2013-06-23 15:42:00,
2013-06-23 10:43:00,81.4,55.5,29.65,SW,229,11.0,12.0,41,0.00,,---,0.00,VWS V14.00,2013-06-23 15:43:00,
2013-06-23 10:44:00,81.1,55.2,29.65,SW,229,2.0,12.0,41,0.00,,---,0.00,VWS V14.00,2013-06-23 15:44:00,
2013-06-23 10:47:00,81.1,56.5,29.65,SSW,203,1.0,12.0,43,0.00,,---,0.00,VWS V14.00,2013-06-23 15:47:00,
2013-06-23 10:48:00,81.1,56.5,29.65,SSW,198,1.0,12.0,43,0.00,,---,0.00,VWS V14.00,2013-06-23 15:48:00,
2013-06-23 10:49:00,81.2,56.6,29.65,SSW,193,0.0,12.0,43,0.00,,---,0.00,VWS V14.00,2013-06-23 15:49:00,
2013-06-23 10:52:00,81.1,54.5,29.65,SSW,212,1.0,12.0,40,0.00,,---,0.00,VWS V14.00,2013-06-23 15:52:00,
2013-06-23 10:53:00,81.1,54.5,29.65,South,186,10.0,12.0,40,0.00,,---,0.00,VWS V14.00,2013-06-23 15:53:00,
2013-06-23 10:54:00,81.2,54.6,29.65,SSW,196,3.0,12.0,40,0.00,,---,0.00,VWS V14.00,2013-06-23 15:54:00,
2013-06-23 10:58:00,81.2,55.3,29.65,SW,219,1.0,12.0,41,0.00,,---,0.00,VWS V14.00,2013-06-23 15:58:00,
2013-06-23 10:59:00,81.2,56.6,29.64,WSW,243,6.0,12.0,43,0.00,,---,0.00,VWS V14.00,2013-06-23 15:59:00,
2013-06-23 11:00:00,81.4,56.8,29.64,SW,219,1.0,1.0,43,0.00,,---,0.00,VWS V14.00,2013-06-23 16:00:00,
2013-06-23 11:01:00,81.6,56.3,29.64,South,181,0.0,8.0,42,0.00,,---,0.00,VWS V14.00,2013-06-23 16:01:00,
2013-06-23 11:03:00,81.4,55.5,29.64,SSW,195,3.0,14.0,41,0.00,,---,0.00,VWS V14.00,2013-06-23 16:03:00,
2013-06-23 11:04:00,81.4,54.8,29.64,SW,229,0.0,14.0,40,0.00,,---,0.00,VWS V14.00,2013-06-23 16:04:00,
2013-06-23 11:05:00,81.8,55.8,29.64,South,191,0.0,14.0,41,0.00,,---,0.00,VWS V14.00,2013-06-23 16:05:00,
2013-06-23 11:06:00,81.8,53.7,29.64,SSW,203,3.0,14.0,38,0.00,,---,0.00,VWS V14.00,2013-06-23 16:06:00,
2013-06-23 11:07:00,82.0,55.3,29.64,SW,222,1.0,14.0,40,0.00,,---,0.00,VWS V14.00,2013-06-23 16:07:00,
2013-06-23 11:08:00,82.2,55.5,29.64,SW,219,7.0,14.0,40,0.00,,---,0.00,VWS V14.00,2013-06-23 16:08:00,
2013-06-23 11:09:00,82.0,55.3,29.64,SSW,210,3.0,14.0,40,0.00,,---,0.00,VWS V14.00,2013-06-23 16:09:00,
2013-06-23 11:10:00,82.0,55.3,29.64,WNW,285,6.0,14.0,40,0.00,,---,0.00,VWS V14.00,2013-06-23 16:10:00,
2013-06-23 11:11:00,82.2,54.1,29.64,SW,223,0.0,14.0,38,0.00,,---,0.00,VWS V14.00,2013-06-23 16:11:00,
2013-06-23 11:12:00,82.2,54.1,29.64,SSW,208,3.0,14.0,38,0.00,,---,0.00,VWS V14.00,2013-06-23 16:12:00,
2013-06-23 11:14:00,82.2,54.8,29.64,SSW,212,1.0,14.0,39,0.00,,---,0.00,VWS V14.00,2013-06-23 16:14:00,
2013-06-23 11:15:00,82.6,53.7,29.64,WSW,241,4.0,14.0,37,0.00,,---,0.00,VWS V14.00,2013-06-23 16:15:00,
2013-06-23 11:16:00,82.6,53.7,29.64,SW,222,6.0,14.0,37,0.00,,---,0.00,VWS V14.00,2013-06-23 16:16:00,
2013-06-23 11:17:00,82.8,53.2,29.64,SW,234,0.0,14.0,36,0.00,,---,0.00,VWS V14.00,2013-06-23 16:17:00,
2013-06-23 11:19:00,82.8,53.9,29.64,West,275,0.0,14.0,37,0.00,,---,0.00,VWS V14.00,2013-06-23 16:19:00,
2013-06-23 11:20:00,83.0,54.1,29.64,SSW,212,12.0,14.0,37,0.00,,---,0.00,VWS V14.00,2013-06-23 16:20:00,
2013-06-23 11:21:00,83.0,53.3,29.64,SW,220,0.0,14.0,36,0.00,,---,0.00,VWS V14.00,2013-06-23 16:21:00,
2013-06-23 11:22:00,83.0,53.3,29.64,SW,217,4.0,14.0,36,0.00,,---,0.00,VWS V14.00,2013-06-23 16:22:00,
2013-06-23 11:24:00,83.0,54.8,29.64,SSW,193,7.0,14.0,38,0.00,,---,0.00,VWS V14.00,2013-06-23 16:24:00,
2013-06-23 11:26:00,83.2,55.7,29.64,SSW,196,5.0,14.0,39,0.00,,---,0.00,VWS V14.00,2013-06-23 16:26:00,
2013-06-23 11:27:00,83.4,53.7,29.64,WSW,246,0.0,14.0,36,0.00,,---,0.00,VWS V14.00,2013-06-23 16:27:00,
2013-06-23 11:29:00,83.4,54.4,29.63,West,265,0.0,0.0,37,0.00,,---,0.00,VWS V14.00,2013-06-23 16:29:00,
2013-06-23 11:30:00,83.4,54.4,29.63,SW,223,6.0,8.0,37,0.00,,---,0.00,VWS V14.00,2013-06-23 16:30:00,
2013-06-23 11:32:00,83.4,52.9,29.63,SW,224,5.0,8.0,35,0.00,,---,0.00,VWS V14.00,2013-06-23 16:32:00,
2013-06-23 11:33:00,83.2,52.7,29.63,SW,224,5.0,8.0,35,0.00,,---,0.00,VWS V14.00,2013-06-23 16:33:00,
2013-06-23 11:35:00,83.4,53.7,29.63,SSW,192,3.0,8.0,36,0.00,,---,0.00,VWS V14.00,2013-06-23 16:35:00,
2013-06-23 11:36:00,83.4,53.7,29.63,SSW,195,2.0,8.0,36,0.00,,---,0.00,VWS V14.00,2013-06-23 16:36:00,
2013-06-23 11:37:00,83.6,52.3,29.63,WSW,256,3.0,8.0,34,0.00,,---,0.00,VWS V14.00,2013-06-23 16:37:00,
2013-06-23 11:38:00,83.6,52.3,29.63,WSW,251,0.0,8.0,34,0.00,,---,0.00,VWS V14.00,2013-06-23 16:38:00,
2013-06-23 11:40:00,84.0,52.6,29.63,SSW,192,4.0,8.0,34,0.00,,---,0.00,VWS V14.00,2013-06-23 16:40:00,
2013-06-23 11:42:00,84.0,52.6,29.63,SSW,202,5.0,12.0,34,0.00,,---,0.00,VWS V14.00,2013-06-23 16:42:00,
2013-06-23 11:43:00,84.0,50.2,29.63,SSW,205,0.0,12.0,31,0.00,,---,0.00,VWS V14.00,2013-06-23 16:43:00,
2013-06-23 11:45:00,84.1,50.2,29.63,SW,219,0.0,12.0,31,0.00,,---,0.00,VWS V14.00,2013-06-23 16:45:00,
2013-06-23 11:47:00,84.3,50.4,29.63,SSW,205,6.0,12.0,31,0.00,,---,0.00,VWS V14.00,2013-06-23 16:47:00,
2013-06-23 11:48:00,84.5,50.6,29.63,SSE,151,2.0,12.0,31,0.00,,---,0.00,VWS V14.00,2013-06-23 16:48:00,
2013-06-23 11:50:00,84.5,53.9,29.63,SSW,205,8.0,12.0,35,0.00,,---,0.00,VWS V14.00,2013-06-23 16:50:00,
2013-06-23 11:52:00,84.1,52.7,29.63,SSW,209,4.0,12.0,34,0.00,,---,0.00,VWS V14.00,2013-06-23 16:52:00,
2013-06-23 11:53:00,84.3,51.3,29.63,SSW,202,0.0,12.0,32,0.00,,---,0.00,VWS V14.00,2013-06-23 16:53:00,
2013-06-23 11:55:00,84.5,49.7,29.63,SSW,193,0.0,12.0,30,0.00,,---,0.00,VWS V14.00,2013-06-23 16:55:00,
2013-06-23 11:57:00,84.5,51.4,29.63,SSW,192,0.0,12.0,32,0.00,,---,0.00,VWS V14.00,2013-06-23 16:57:00,
2013-06-23 12:02:00,85.1,51.1,29.62,WSW,257,0.0,0.0,31,0.00,,---,0.00,VWS V14.00,2013-06-23 17:02:00,
2013-06-23 12:03:00,85.3,50.4,29.62,West,267,0.0,0.0,30,0.00,,---,0.00,VWS V14.00,2013-06-23 17:03:00,
2013-06-23 12:07:00,85.5,48.7,29.62,SSW,209,0.0,8.0,28,0.00,,---,0.00,VWS V14.00,2013-06-23 17:07:00,
2013-06-23 12:08:00,85.5,48.7,29.62,SSW,209,0.0,8.0,28,0.00,,---,0.00,VWS V14.00,2013-06-23 17:08:00,
2013-06-23 12:09:00,85.5,50.6,29.62,SSW,208,0.0,8.0,30,0.00,,---,0.00,VWS V14.00,2013-06-23 17:09:00,
2013-06-23 12:12:00,85.5,54.8,29.62,South,181,0.0,8.0,35,0.00,,---,0.00,VWS V14.00,2013-06-23 17:12:00,
2013-06-23 12:13:00,85.5,54.8,29.62,SSW,203,0.0,8.0,35,0.00,,---,0.00,VWS V14.00,2013-06-23 17:13:00,
2013-06-23 12:14:00,85.7,54.9,29.61,SSW,206,1.0,8.0,35,0.00,,---,0.00,VWS V14.00,2013-06-23 17:14:00,
2013-06-23 12:17:00,85.9,53.5,29.61,SSW,196,0.0,8.0,33,0.00,,---,0.00,VWS V14.00,2013-06-23 17:17:00,
2013-06-23 12:18:00,85.9,52.7,29.61,SW,229,0.0,8.0,32,0.00,,---,0.00,VWS V14.00,2013-06-23 17:18:00,
2013-06-23 12:19:00,86.1,52.0,29.61,SW,227,0.0,8.0,31,0.00,,---,0.00,VWS V14.00,2013-06-23 17:19:00,
2013-06-23 12:20:00,86.1,51.1,29.61,SW,227,0.0,8.0,30,0.00,,---,0.00,VWS V14.00,2013-06-23 17:20:00,
2013-06-23 12:22:00,86.1,51.1,29.61,SW,222,0.0,8.0,30,0.00,,---,0.00,VWS V14.00,2013-06-23 17:22:00,
2013-06-23 12:24:00,86.1,51.1,29.61,SW,222,0.0,8.0,30,0.00,,---,0.00,VWS V14.00,2013-06-23 17:24:00,
2013-06-23 12:25:00,86.1,52.0,29.61,SSE,148,2.0,8.0,31,0.00,,---,0.00,VWS V14.00,2013-06-23 17:25:00,
2013-06-23 12:27:00,86.1,55.3,29.61,South,175,7.0,8.0,35,0.00,,---,0.00,VWS V14.00,2013-06-23 17:27:00,
2013-06-23 12:29:00,85.9,51.8,29.61,ESE,123,0.0,8.0,31,0.00,,---,0.00,VWS V14.00,2013-06-23 17:29:00,
2013-06-23 12:30:00,86.1,52.0,29.61,ESE,120,0.0,0.0,31,0.00,,---,0.00,VWS V14.00,2013-06-23 17:30:00,
2013-06-23 12:33:00,86.3,55.5,29.61,SSE,164,0.0,3.0,35,0.00,,---,0.00,VWS V14.00,2013-06-23 17:33:00,
2013-06-23 12:35:00,86.5,55.6,29.61,SE,138,2.0,3.0,35,0.00,,---,0.00,VWS V14.00,2013-06-23 17:35:00,
2013-06-23 12:36:00,86.5,53.2,29.61,SE,145,1.0,3.0,32,0.00,,---,0.00,VWS V14.00,2013-06-23 17:36:00,
2013-06-23 12:38:00,86.5,53.2,29.61,SSW,198,0.0,3.0,32,0.00,,---,0.00,VWS V14.00,2013-06-23 17:38:00,
2013-06-23 12:40:00,86.5,52.3,29.61,South,186,8.0,9.0,31,0.00,,---,0.00,VWS V14.00,2013-06-23 17:40:00,
2013-06-23 12:41:00,86.7,56.6,29.61,SSW,198,1.0,10.0,36,0.00,,---,0.00,VWS V14.00,2013-06-23 17:41:00,
2013-06-23 12:43:00,87.2,54.6,29.61,South,191,0.0,10.0,33,0.00,,---,0.00,VWS V14.00,2013-06-23 17:43:00,
2013-06-23 12:45:00,87.2,52.9,29.61,SW,220,0.0,10.0,31,0.00,,---,0.00,VWS V14.00,2013-06-23 17:45:00,
2013-06-23 12:46:00,87.6,53.3,29.61,SW,219,1.0,10.0,31,0.00,,---,0.00,VWS V14.00,2013-06-23 17:46:00,
2013-06-23 12:47:00,87.2,52.9,29.61,SSW,198,0.0,10.0,31,0.00,,---,0.00,VWS V14.00,2013-06-23 17:47:00,
2013-06-23 12:49:00,87.2,50.2,29.61,SSW,196,1.0,10.0,28,0.00,,---,0.00,VWS V14.00,2013-06-23 17:49:00,
2013-06-23 12:50:00,87.0,51.8,29.61,SSW,196,0.0,10.0,30,0.00,,---,0.00,VWS V14.00,2013-06-23 17:50:00,
2013-06-23 12:51:00,87.2,52.0,29.61,SSW,196,0.0,10.0,30,0.00,,---,0.00,VWS V14.00,2013-06-23 17:51:00,
2013-06-23 12:52:00,87.2,50.2,29.61,SSW,196,0.0,10.0,28,0.00,,---,0.00,VWS V14.00,2013-06-23 17:52:00,
2013-06-23 12:54:00,87.4,50.3,29.61,SSW,196,0.0,10.0,28,0.00,,---,0.00,VWS V14.00,2013-06-23 17:54:00,
2013-06-23 12:55:00,87.8,52.5,29.61,SSW,202,2.0,10.0,30,0.00,,---,0.00,VWS V14.00,2013-06-23 17:55:00,
2013-06-23 12:56:00,87.8,52.5,29.61,SSW,200,1.0,10.0,30,0.00,,---,0.00,VWS V14.00,2013-06-23 17:56:00,
2013-06-23 12:57:00,88.0,51.8,29.61,SSW,200,0.0,10.0,29,0.00,,---,0.00,VWS V14.00,2013-06-23 17:57:00,
2013-06-23 12:59:00,87.8,51.6,29.60,SSE,151,1.0,10.0,29,0.00,,---,0.00,VWS V14.00,2013-06-23 17:59:00,
2013-06-23 13:00:00,87.8,50.7,29.60,SSW,195,1.0,3.0,28,0.00,,---,0.00,VWS V14.00,2013-06-23 18:00:00,
2013-06-23 13:01:00,87.8,50.7,29.60,SSW,202,0.0,3.0,28,0.00,,---,0.00,VWS V14.00,2013-06-23 18:01:00,
2013-06-23 13:02:00,87.8,50.7,29.60,SSW,206,0.0,3.0,28,0.00,,---,0.00,VWS V14.00,2013-06-23 18:02:00,
2013-06-23 13:03:00,88.0,49.9,29.60,West,271,1.0,7.0,27,0.00,,---,0.00,VWS V14.00,2013-06-23 18:03:00,
2013-06-23 13:04:00,87.8,50.7,29.60,West,271,0.0,7.0,28,0.00,,---,0.00,VWS V14.00,2013-06-23 18:04:00,
2013-06-23 13:06:00,87.6,50.5,29.60,West,272,0.0,7.0,28,0.00,,---,0.00,VWS V14.00,2013-06-23 18:06:00,
2013-06-23 13:07:00,87.4,52.2,29.60,SSW,213,0.0,7.0,30,0.00,,---,0.00,VWS V14.00,2013-06-23 18:07:00,
2013-06-23 13:08:00,87.6,50.5,29.60,South,182,1.0,7.0,28,0.00,,---,0.00,VWS V14.00,2013-06-23 18:08:00,
2013-06-23 13:10:00,87.4,52.2,29.60,South,191,0.0,7.0,30,0.00,,---,0.00,VWS V14.00,2013-06-23 18:10:00,
2013-06-23 13:11:00,87.4,52.2,29.60,South,171,0.0,7.0,30,0.00,,---,0.00,VWS V14.00,2013-06-23 18:11:00,
2013-06-23 13:12:00,87.8,50.7,29.60,SW,224,2.0,7.0,28,0.00,,---,0.00,VWS V14.00,2013-06-23 18:12:00,
2013-06-23 13:13:00,87.6,50.5,29.60,SW,216,0.0,7.0,28,0.00,,---,0.00,VWS V14.00,2013-06-23 18:13:00,
2013-06-23 13:15:00,87.8,50.7,29.57,WSW,251,0.0,7.0,28,0.00,,---,0.00,VWS V14.00,2013-06-23 18:15:00,
2013-06-23 13:16:00,87.8,50.7,29.57,West,260,0.0,7.0,28,0.00,,---,0.00,VWS V14.00,2013-06-23 18:16:00,
2013-06-23 13:17:00,88.0,50.8,29.57,SW,233,1.0,7.0,28,0.00,,---,0.00,VWS V14.00,2013-06-23 18:17:00,
2013-06-23 13:18:00,88.0,50.8,29.57,West,265,0.0,7.0,28,0.00,,---,0.00,VWS V14.00,2013-06-23 18:18:00,
2013-06-23 13:20:00,88.0,49.9,29.57,West,261,0.0,7.0,27,0.00,,---,0.00,VWS V14.00,2013-06-23 18:20:00,
2013-06-23 13:21:00,88.0,49.9,29.57,West,261,0.0,7.0,27,0.00,,---,0.00,VWS V14.00,2013-06-23 18:21:00,
2013-06-23 13:22:00,88.2,51.0,29.57,SW,222,1.0,8.0,28,0.00,,---,0.00,VWS V14.00,2013-06-23 18:22:00,
2013-06-23 13:23:00,88.2,50.0,29.57,SW,224,0.0,8.0,27,0.00,,---,0.00,VWS V14.00,2013-06-23 18:23:00,
2013-06-23 13:26:00,88.2,50.0,29.57,SW,224,0.0,8.0,27,0.00,,---,0.00,VWS V14.00,2013-06-23 18:26:00,
2013-06-23 13:27:00,88.2,50.0,29.57,SW,224,0.0,8.0,27,0.00,,---,0.00,VWS V14.00,2013-06-23 18:27:00,
2013-06-23 13:28:00,88.2,50.0,29.57,SW,224,0.0,8.0,27,0.00,,---,0.00,VWS V14.00,2013-06-23 18:28:00,
2013-06-23 13:29:00,88.2,50.0,29.57,SW,224,0.0,8.0,27,0.00,,---,0.00,VWS V14.00,2013-06-23 18:29:00,
2013-06-23 13:31:00,88.8,50.5,29.57,SSW,202,0.0,0.0,27,0.00,,---,0.00,VWS V14.00,2013-06-23 18:31:00,
2013-06-23 13:32:00,88.8,50.5,29.57,SSW,208,0.0,0.0,27,0.00,,---,0.00,VWS V14.00,2013-06-23 18:32:00,
2013-06-23 13:33:00,88.8,51.5,29.57,SSW,208,0.0,0.0,28,0.00,,---,0.00,VWS V14.00,2013-06-23 18:33:00,
2013-06-23 13:34:00,88.8,49.5,29.57,SSW,208,0.0,0.0,26,0.00,,---,0.00,VWS V14.00,2013-06-23 18:34:00,
2013-06-23 13:36:00,89.0,52.7,29.57,SSW,208,0.0,0.0,29,0.00,,---,0.00,VWS V14.00,2013-06-23 18:36:00,
2013-06-23 13:37:00,89.0,50.7,29.57,SSW,192,0.0,0.0,27,0.00,,---,0.00,VWS V14.00,2013-06-23 18:37:00,
2013-06-23 13:38:00,89.0,50.7,29.57,WSW,248,0.0,0.0,27,0.00,,---,0.00,VWS V14.00,2013-06-23 18:38:00,
2013-06-23 13:39:00,89.0,48.7,29.57,WSW,248,0.0,0.0,25,0.00,,---,0.00,VWS V14.00,2013-06-23 18:39:00,
2013-06-23 13:41:00,89.0,47.6,29.57,West,265,6.0,6.0,24,0.00,,---,0.00,VWS V14.00,2013-06-23 18:41:00,
2013-06-23 13:42:00,89.0,49.7,29.57,South,182,0.0,6.0,26,0.00,,---,0.00,VWS V14.00,2013-06-23 18:42:00,
2013-06-23 13:43:00,89.0,49.7,29.57,South,184,0.0,6.0,26,0.00,,---,0.00,VWS V14.00,2013-06-23 18:43:00,
2013-06-23 13:44:00,88.8,49.5,29.56,South,176,0.0,6.0,26,0.00,,---,0.00,VWS V14.00,2013-06-23 18:44:00,
2013-06-23 13:46:00,88.8,48.5,29.56,South,189,1.0,6.0,25,0.00,,---,0.00,VWS V14.00,2013-06-23 18:46:00,
2013-06-23 13:47:00,88.8,48.5,29.56,South,189,1.0,6.0,25,0.00,,---,0.00,VWS V14.00,2013-06-23 18:47:00,
2013-06-23 13:48:00,89.0,48.7,29.56,South,189,0.0,6.0,25,0.00,,---,0.00,VWS V14.00,2013-06-23 18:48:00,
2013-06-23 13:49:00,89.3,51.0,29.56,South,189,0.0,6.0,27,0.00,,---,0.00,VWS V14.00,2013-06-23 18:49:00,
2013-06-23 13:51:00,89.3,51.0,29.56,SSW,196,1.0,6.0,27,0.00,,---,0.00,VWS V14.00,2013-06-23 18:51:00,
2013-06-23 13:52:00,89.5,51.1,29.56,SSW,205,0.0,6.0,27,0.00,,---,0.00,VWS V14.00,2013-06-23 18:52:00,
2013-06-23 13:53:00,89.3,50.0,29.56,West,270,0.0,6.0,26,0.00,,---,0.00,VWS V14.00,2013-06-23 18:53:00,
2013-06-23 13:55:00,89.3,50.0,29.56,West,270,0.0,6.0,26,0.00,,---,0.00,VWS V14.00,2013-06-23 18:55:00,
2013-06-23 13:56:00,89.3,51.0,29.56,WNW,285,1.0,6.0,27,0.00,,---,0.00,VWS V14.00,2013-06-23 18:56:00,
2013-06-23 13:57:00,89.3,51.0,29.56,WNW,284,0.0,6.0,27,0.00,,---,0.00,VWS V14.00,2013-06-23 18:57:00,
2013-06-23 13:58:00,89.7,51.3,29.56,SW,226,0.0,6.0,27,0.00,,---,0.00,VWS V14.00,2013-06-23 18:58:00,
2013-06-23 13:59:00,89.7,50.3,29.55,SSW,212,0.0,6.0,26,0.00,,---,0.00,VWS V14.00,2013-06-23 18:59:00,
2013-06-23 14:00:00,89.9,52.5,29.55,SW,224,0.0,2.0,28,0.00,,---,0.00,VWS V14.00,2013-06-23 19:00:00,
2013-06-23 14:02:00,89.9,48.3,29.55,South,179,0.0,7.0,24,0.00,,---,0.00,VWS V14.00,2013-06-23 19:02:00,
2013-06-23 14:03:00,89.5,48.0,29.55,South,178,0.0,7.0,24,0.00,,---,0.00,VWS V14.00,2013-06-23 19:03:00,
2013-06-23 14:04:00,89.7,48.2,29.55,South,179,0.0,7.0,24,0.00,,---,0.00,VWS V14.00,2013-06-23 19:04:00,
2013-06-23 14:05:00,89.7,50.3,29.55,South,179,0.0,7.0,26,0.00,,---,0.00,VWS V14.00,2013-06-23 19:05:00,
2013-06-23 14:07:00,89.7,50.3,29.55,South,182,0.0,7.0,26,0.00,,---,0.00,VWS V14.00,2013-06-23 19:07:00,
2013-06-23 14:08:00,89.9,51.5,29.55,South,184,0.0,7.0,27,0.00,,---,0.00,VWS V14.00,2013-06-23 19:08:00,
2013-06-23 14:09:00,90.1,50.6,29.55,South,184,0.0,7.0,26,0.00,,---,0.00,VWS V14.00,2013-06-23 19:09:00,
2013-06-23 14:10:00,90.3,50.8,29.55,South,184,0.0,7.0,26,0.00,,---,0.00,VWS V14.00,2013-06-23 19:10:00,
2013-06-23 14:12:00,90.5,52.0,29.55,South,184,0.0,7.0,27,0.00,,---,0.00,VWS V14.00,2013-06-23 19:12:00,
2013-06-23 14:13:00,90.5,52.0,29.55,South,184,0.0,7.0,27,0.00,,---,0.00,VWS V14.00,2013-06-23 19:13:00,
2013-06-23 14:14:00,90.5,49.9,29.54,SSW,200,0.0,7.0,25,0.00,,---,0.00,VWS V14.00,2013-06-23 19:14:00,
2013-06-23 14:15:00,90.7,52.2,29.54,SSW,196,0.0,7.0,27,0.00,,---,0.00,VWS V14.00,2013-06-23 19:15:00,
2013-06-23 14:17:00,90.7,50.1,29.54,SSW,200,0.0,7.0,25,0.00,,---,0.00,VWS V14.00,2013-06-23 19:17:00,
2013-06-23 14:18:00,90.7,49.0,29.54,SSW,210,0.0,7.0,24,0.00,,---,0.00,VWS V14.00,2013-06-23 19:18:00,
2013-06-23 14:19:00,90.5,49.9,29.54,South,169,7.0,8.0,25,0.00,,---,0.00,VWS V14.00,2013-06-23 19:19:00,
2013-06-23 14:20:00,90.3,49.7,29.54,SSW,208,5.0,11.0,25,0.00,,---,0.00,VWS V14.00,2013-06-23 19:20:00,
2013-06-23 14:22:00,90.3,47.5,29.54,SW,223,0.0,11.0,23,0.00,,---,0.00,VWS V14.00,2013-06-23 19:22:00,
2013-06-23 14:23:00,90.5,47.7,29.54,SW,223,0.0,11.0,23,0.00,,---,0.00,VWS V14.00,2013-06-23 19:23:00,
2013-06-23 14:25:00,90.5,47.7,29.54,SW,223,0.0,11.0,23,0.00,,---,0.00,VWS V14.00,2013-06-23 19:25:00,
2013-06-23 14:28:00,90.5,47.7,29.54,SSW,203,0.0,11.0,23,0.00,,---,0.00,VWS V14.00,2013-06-23 19:28:00,
2013-06-23 14:29:00,90.7,47.8,29.53,SSW,203,0.0,11.0,23,0.00,,---,0.00,VWS V14.00,2013-06-23 19:29:00,
2013-06-23 14:30:00,90.5,47.7,29.53,SSW,203,0.0,0.0,23,0.00,,---,0.00,VWS V14.00,2013-06-23 19:30:00,
2013-06-23 14:31:00,90.5,47.7,29.53,SE,133,0.0,0.0,23,0.00,,---,0.00,VWS V14.00,2013-06-23 19:31:00,
2013-06-23 14:35:00,91.2,51.6,29.53,SSE,155,0.0,1.0,26,0.00,,---,0.00,VWS V14.00,2013-06-23 19:35:00,
2013-06-23 14:36:00,91.2,51.6,29.53,SSW,206,0.0,1.0,26,0.00,,---,0.00,VWS V14.00,2013-06-23 19:36:00,
2013-06-23 14:40:00,90.7,47.8,29.53,SSW,202,0.0,11.0,23,0.00,,---,0.00,VWS V14.00,2013-06-23 19:40:00,
2013-06-23 14:41:00,91.0,49.2,29.53,South,191,1.0,11.0,24,0.00,,---,0.00,VWS V14.00,2013-06-23 19:41:00,
2013-06-23 14:45:00,91.2,48.3,29.53,SW,216,0.0,11.0,23,0.00,,---,0.00,VWS V14.00,2013-06-23 19:45:00,
2013-06-23 14:46:00,91.2,48.3,29.53,SW,215,0.0,11.0,23,0.00,,---,0.00,VWS V14.00,2013-06-23 19:46:00,
2013-06-23 14:50:00,91.2,48.3,29.53,ESE,110,0.0,11.0,23,0.00,,---,0.00,VWS V14.00,2013-06-23 19:50:00,
2013-06-23 14:51:00,91.2,48.3,29.53,ESE,110,0.0,11.0,23,0.00,,---,0.00,VWS V14.00,2013-06-23 19:51:00,
2013-06-23 14:55:00,91.6,50.8,29.53,ESE,123,0.0,11.0,25,0.00,,---,0.00,VWS V14.00,2013-06-23 19:55:00,
2013-06-23 14:56:00,91.8,51.0,29.53,ESE,123,0.0,11.0,25,0.00,,---,0.00,VWS V14.00,2013-06-23 19:56:00,
2013-06-23 14:57:00,91.8,48.8,29.53,ESE,123,0.0,11.0,23,0.00,,---,0.00,VWS V14.00,2013-06-23 19:57:00,
2013-06-23 15:00:00,92.1,49.0,29.51,West,261,0.0,0.0,23,0.00,,---,0.00,VWS V14.00,2013-06-23 20:00:00,
2013-06-23 15:01:00,92.1,47.8,29.51,West,261,0.0,0.0,22,0.00,,---,0.00,VWS V14.00,2013-06-23 20:01:00,
2013-06-23 15:02:00,92.3,48.0,29.51,WSW,250,0.0,0.0,22,0.00,,---,0.00,VWS V14.00,2013-06-23 20:02:00,
2013-06-23 15:05:00,92.3,49.2,29.51,WSW,257,0.0,0.0,23,0.00,,---,0.00,VWS V14.00,2013-06-23 20:05:00,
2013-06-23 15:06:00,92.3,51.4,29.51,WSW,248,0.0,0.0,25,0.00,,---,0.00,VWS V14.00,2013-06-23 20:06:00,
2013-06-23 15:07:00,92.3,51.4,29.51,SSE,158,0.0,0.0,25,0.00,,---,0.00,VWS V14.00,2013-06-23 20:07:00,
2013-06-23 15:10:00,91.8,51.0,29.51,East,100,0.0,0.0,25,0.00,,---,0.00,VWS V14.00,2013-06-23 20:10:00,
2013-06-23 15:12:00,91.4,50.7,29.51,East,100,0.0,0.0,25,0.00,,---,0.00,VWS V14.00,2013-06-23 20:12:00,
2013-06-23 15:16:00,92.1,49.0,29.51,SSW,206,7.0,12.0,23,0.00,,---,0.00,VWS V14.00,2013-06-23 20:16:00,
2013-06-23 15:17:00,92.1,51.3,29.51,South,186,1.0,12.0,25,0.00,,---,0.00,VWS V14.00,2013-06-23 20:17:00,
2013-06-23 15:21:00,91.8,48.8,29.51,WSW,243,5.0,12.0,23,0.00,,---,0.00,VWS V14.00,2013-06-23 20:21:00,
2013-06-23 15:22:00,91.8,48.8,29.51,West,270,1.0,12.0,23,0.00,,---,0.00,VWS V14.00,2013-06-23 20:22:00,
2013-06-23 15:26:00,91.0,49.2,29.51,South,186,0.0,12.0,24,0.00,,---,0.00,VWS V14.00,2013-06-23 20:26:00,
2013-06-23 15:27:00,91.0,48.1,29.51,SSW,193,1.0,12.0,23,0.00,,---,0.00,VWS V14.00,2013-06-23 20:27:00,
2013-06-23 15:31:00,90.7,47.8,29.51,SE,126,0.0,0.0,23,0.00,,---,0.00,VWS V14.00,2013-06-23 20:31:00,
2013-06-23 15:32:00,91.0,49.2,29.51,SE,126,0.0,0.0,24,0.00,,---,0.00,VWS V14.00,2013-06-23 20:32:00,
2013-06-23 15:37:00,91.2,48.3,29.51,ESE,112,0.0,11.0,23,0.00,,---,0.00,VWS V14.00,2013-06-23 20:37:00,
2013-06-23 15:38:00,91.0,49.2,29.51,ESE,116,0.0,11.0,24,0.00,,---,0.00,VWS V14.00,2013-06-23 20:38:00,
2013-06-23 15:42:00,91.8,48.8,29.51,SE,136,1.0,11.0,23,0.00,,---,0.00,VWS V14.00,2013-06-23 20:42:00,
2013-06-23 15:43:00,91.6,48.6,29.51,SE,133,0.0,11.0,23,0.00,,---,0.00,VWS V14.00,2013-06-23 20:43:00,
2013-06-23 15:44:00,91.4,49.6,29.50,SE,144,5.0,11.0,24,0.00,,---,0.00,VWS V14.00,2013-06-23 20:44:00,
2013-06-23 15:47:00,91.6,47.4,29.50,SE,133,1.0,11.0,22,0.00,,---,0.00,VWS V14.00,2013-06-23 20:47:00,
2013-06-23 15:48:00,91.4,47.2,29.50,SE,133,0.0,11.0,22,0.00,,---,0.00,VWS V14.00,2013-06-23 20:48:00,
2013-06-23 15:49:00,91.2,48.3,29.50,ESE,102,0.0,11.0,23,0.00,,---,0.00,VWS V14.00,2013-06-23 20:49:00,
2013-06-23 15:52:00,91.6,48.6,29.50,East,90,0.0,11.0,23,0.00,,---,0.00,VWS V14.00,2013-06-23 20:52:00,
2013-06-23 15:53:00,91.8,48.8,29.50,East,79,1.0,11.0,23,0.00,,---,0.00,VWS V14.00,2013-06-23 20:53:00,
2013-06-23 15:54:00,92.1,47.8,29.50,SSE,155,0.0,11.0,22,0.00,,---,0.00,VWS V14.00,2013-06-23 20:54:00,
2013-06-23 15:57:00,92.3,46.8,29.50,SSE,165,5.0,11.0,21,0.00,,---,0.00,VWS V14.00,2013-06-23 20:57:00,
2013-06-23 15:58:00,92.1,47.8,29.50,SSE,157,1.0,11.0,22,0.00,,---,0.00,VWS V14.00,2013-06-23 20:58:00,
2013-06-23 16:00:00,92.1,49.0,29.50,SSE,162,1.0,1.0,23,0.00,,---,0.00,VWS V14.00,2013-06-23 21:00:00,
2013-06-23 16:02:00,91.4,46.0,29.50,South,179,12.0,12.0,21,0.00,,---,0.00,VWS V14.00,2013-06-23 21:02:00,
2013-06-23 16:03:00,91.2,45.8,29.50,SSE,164,0.0,12.0,21,0.00,,---,0.00,VWS V14.00,2013-06-23 21:03:00,
2013-06-23 16:05:00,90.3,47.5,29.50,SSE,167,2.0,12.0,23,0.00,,---,0.00,VWS V14.00,2013-06-23 21:05:00,
2013-06-23 16:07:00,89.7,47.0,29.50,SSE,154,1.0,12.0,23,0.00,,---,0.00,VWS V14.00,2013-06-23 21:07:00,
2013-06-23 16:08:00,89.7,48.2,29.50,SSE,148,1.0,12.0,24,0.00,,---,0.00,VWS V14.00,2013-06-23 21:08:00,
2013-06-23 16:10:00,89.3,46.7,29.50,SE,141,0.0,12.0,23,0.00,,---,0.00,VWS V14.00,2013-06-23 21:10:00,
2013-06-23 16:12:00,89.3,45.5,29.50,SE,143,0.0,12.0,22,0.00,,---,0.00,VWS V14.00,2013-06-23 21:12:00,
2013-06-23 16:13:00,89.3,45.5,29.50,ENE,66,0.0,12.0,22,0.00,,---,0.00,VWS V14.00,2013-06-23 21:13:00,
2013-06-23 16:14:00,89.5,49.1,29.53,SE,133,5.0,12.0,25,0.00,,---,0.00,VWS V14.00,2013-06-23 21:14:00,
2013-06-23 16:15:00,89.3,46.7,29.53,ESE,112,1.0,12.0,23,0.00,,---,0.00,VWS V14.00,2013-06-23 21:15:00,
2013-06-23 16:18:00,90.1,50.6,29.53,East,89,9.0,12.0,26,0.00,,---,0.00,VWS V14.00,2013-06-23 21:18:00,
2013-06-23 16:19:00,90.5,51.0,29.53,East,97,1.0,12.0,26,0.00,,---,0.00,VWS V14.00,2013-06-23 21:19:00,
2013-06-23 16:20:00,90.5,51.0,29.53,ESE,112,1.0,12.0,26,0.00,,---,0.00,VWS V14.00,2013-06-23 21:20:00,
2013-06-23 16:23:00,91.8,51.0,29.53,East,88,0.0,12.0,25,0.00,,---,0.00,VWS V14.00,2013-06-23 21:23:00,
2013-06-23 16:24:00,92.5,50.5,29.53,SE,140,1.0,12.0,24,0.00,,---,0.00,VWS V14.00,2013-06-23 21:24:00,
2013-06-23 16:25:00,92.3,49.2,29.53,ESE,120,9.0,13.0,23,0.00,,---,0.00,VWS V14.00,2013-06-23 21:25:00,
2013-06-23 16:28:00,91.6,48.6,29.53,ESE,109,1.0,13.0,23,0.00,,---,0.00,VWS V14.00,2013-06-23 21:28:00,
2013-06-23 16:29:00,91.4,48.4,29.51,ESE,102,0.0,13.0,23,0.00,,---,0.00,VWS V14.00,2013-06-23 21:29:00,
2013-06-23 16:30:00,91.4,48.4,29.51,East,95,0.0,2.0,23,0.00,,---,0.00,VWS V14.00,2013-06-23 21:30:00,
2013-06-23 16:33:00,92.3,49.2,29.51,SE,134,7.0,8.0,23,0.00,,---,0.00,VWS V14.00,2013-06-23 21:33:00,
2013-06-23 16:34:00,92.1,47.8,29.51,SE,134,3.0,8.0,22,0.00,,---,0.00,VWS V14.00,2013-06-23 21:34:00,
2013-06-23 16:35:00,91.8,48.8,29.51,SE,131,6.0,8.0,23,0.00,,---,0.00,VWS V14.00,2013-06-23 21:35:00,
2013-06-23 16:38:00,92.1,46.6,29.51,ESE,120,5.0,10.0,21,0.00,,---,0.00,VWS V14.00,2013-06-23 21:38:00,
2013-06-23 16:39:00,92.3,46.8,29.51,SE,131,8.0,10.0,21,0.00,,---,0.00,VWS V14.00,2013-06-23 21:39:00,
2013-06-23 16:40:00,92.3,50.3,29.51,SSE,157,6.0,10.0,24,0.00,,---,0.00,VWS V14.00,2013-06-23 21:40:00,
2013-06-23 16:43:00,91.0,48.1,29.51,SW,219,7.0,10.0,23,0.00,,---,0.00,VWS V14.00,2013-06-23 21:43:00,
2013-06-23 16:44:00,91.0,48.1,29.51,SE,134,1.0,14.0,23,0.00,,---,0.00,VWS V14.00,2013-06-23 21:44:00,
2013-06-23 16:45:00,90.5,47.7,29.51,SE,144,1.0,14.0,23,0.00,,---,0.00,VWS V14.00,2013-06-23 21:45:00,
2013-06-23 16:48:00,89.7,47.0,29.51,SSE,167,0.0,14.0,23,0.00,,---,0.00,VWS V14.00,2013-06-23 21:48:00,
2013-06-23 16:49:00,89.7,47.0,29.51,ESE,109,0.0,14.0,23,0.00,,---,0.00,VWS V14.00,2013-06-23 21:49:00,
2013-06-23 16:50:00,89.3,46.7,29.51,SE,124,7.0,14.0,23,0.00,,---,0.00,VWS V14.00,2013-06-23 21:50:00,
2013-06-23 16:54:00,88.6,46.1,29.51,ESE,116,5.0,14.0,23,0.00,,---,0.00,VWS V14.00,2013-06-23 21:54:00,
2013-06-23 16:55:00,88.8,45.1,29.51,SE,133,5.0,14.0,22,0.00,,---,0.00,VWS V14.00,2013-06-23 21:55:00,
2013-06-23 16:59:00,89.7,48.2,29.52,SE,126,2.0,14.0,24,0.00,,---,0.00,VWS V14.00,2013-06-23 21:59:00,
2013-06-23 17:00:00,90.1,47.3,29.52,SE,134,12.0,12.0,23,0.00,,---,0.00,VWS V14.00,2013-06-23 22:00:00,
2013-06-23 17:01:00,90.5,47.7,29.52,SSE,162,1.0,12.0,23,0.00,,---,0.00,VWS V14.00,2013-06-23 22:01:00,
2013-06-23 17:04:00,90.5,47.7,29.52,SSE,162,0.0,12.0,23,0.00,,---,0.00,VWS V14.00,2013-06-23 22:04:00,
2013-06-23 17:05:00,91.0,48.1,29.52,SSE,152,2.0,12.0,23,0.00,,---,0.00,VWS V14.00,2013-06-23 22:05:00,
2013-06-23 17:06:00,91.0,46.9,29.52,SSE,158,1.0,12.0,22,0.00,,---,0.00,VWS V14.00,2013-06-23 22:06:00,
2013-06-23 17:09:00,90.5,47.7,29.52,ESE,121,0.0,12.0,23,0.00,,---,0.00,VWS V14.00,2013-06-23 22:09:00,
2013-06-23 17:10:00,90.3,47.5,29.52,ESE,123,0.0,12.0,23,0.00,,---,0.00,VWS V14.00,2013-06-23 22:10:00,
2013-06-23 17:12:00,89.9,47.2,29.52,ESE,106,0.0,12.0,23,0.00,,---,0.00,VWS V14.00,2013-06-23 22:12:00,
2013-06-23 17:14:00,89.9,47.2,29.51,SE,130,0.0,12.0,23,0.00,,---,0.00,VWS V14.00,2013-06-23 22:14:00,
2013-06-23 17:15:00,89.7,48.2,29.51,SE,133,0.0,12.0,24,0.00,,---,0.00,VWS V14.00,2013-06-23 22:15:00,
2013-06-23 17:17:00,89.5,48.0,29.51,ESE,116,1.0,12.0,24,0.00,,---,0.00,VWS V14.00,2013-06-23 22:17:00,
2013-06-23 17:19:00,89.3,47.8,29.51,SE,128,0.0,12.0,24,0.00,,---,0.00,VWS V14.00,2013-06-23 22:19:00,
2013-06-23 17:20:00,89.0,47.6,29.51,SE,140,1.0,12.0,24,0.00,,---,0.00,VWS V14.00,2013-06-23 22:20:00,
2013-06-23 17:22:00,89.0,47.6,29.51,SE,136,0.0,12.0,24,0.00,,---,0.00,VWS V14.00,2013-06-23 22:22:00,
2013-06-23 17:24:00,89.0,46.4,29.51,SE,140,0.0,12.0,23,0.00,,---,0.00,VWS V14.00,2013-06-23 22:24:00,
2013-06-23 17:25:00,89.0,48.7,29.51,SE,140,0.0,12.0,25,0.00,,---,0.00,VWS V14.00,2013-06-23 22:25:00,
2013-06-23 17:26:00,89.0,48.7,29.51,SE,138,0.0,12.0,25,0.00,,---,0.00,VWS V14.00,2013-06-23 22:26:00,
2013-06-23 17:27:00,89.3,46.7,29.51,SE,133,0.0,12.0,23,0.00,,---,0.00,VWS V14.00,2013-06-23 22:27:00,
2013-06-23 17:29:00,89.5,48.0,29.52,SE,143,0.0,0.0,24,0.00,,---,0.00,VWS V14.00,2013-06-23 22:29:00,
2013-06-23 17:30:00,89.5,48.0,29.52,SE,133,2.0,2.0,24,0.00,,---,0.00,VWS V14.00,2013-06-23 22:30:00,
2013-06-23 17:31:00,89.5,48.0,29.52,SE,136,1.0,2.0,24,0.00,,---,0.00,VWS V14.00,2013-06-23 22:31:00,
2013-06-23 17:32:00,89.7,47.0,29.52,SE,131,1.0,2.0,23,0.00,,---,0.00,VWS V14.00,2013-06-23 22:32:00,
2013-06-23 17:34:00,90.1,46.2,29.52,SE,137,2.0,5.0,22,0.00,,---,0.00,VWS V14.00,2013-06-23 22:34:00,
2013-06-23 17:35:00,90.1,46.2,29.52,SSE,147,2.0,5.0,22,0.00,,---,0.00,VWS V14.00,2013-06-23 22:35:00,
2013-06-23 17:36:00,89.9,47.2,29.52,SSE,158,1.0,5.0,23,0.00,,---,0.00,VWS V14.00,2013-06-23 22:36:00,
2013-06-23 17:37:00,89.9,47.2,29.52,ESE,117,1.0,5.0,23,0.00,,---,0.00,VWS V14.00,2013-06-23 22:37:00,
2013-06-23 17:40:00,90.1,47.3,29.52,ESE,117,0.0,5.0,23,0.00,,---,0.00,VWS V14.00,2013-06-23 22:40:00,
2013-06-23 17:41:00,90.1,47.3,29.52,ESE,112,0.0,5.0,23,0.00,,---,0.00,VWS V14.00,2013-06-23 22:41:00,
2013-06-23 17:42:00,89.9,47.2,29.52,ESE,110,0.0,5.0,23,0.00,,---,0.00,VWS V14.00,2013-06-23 22:42:00,
2013-06-23 17:45:00,89.0,48.7,29.50,NE,34,0.0,5.0,25,0.00,,---,0.00,VWS V14.00,2013-06-23 22:45:00,
2013-06-23 17:46:00,88.6,48.3,29.50,NNE,30,0.0,5.0,25,0.00,,---,0.00,VWS V14.00,2013-06-23 22:46:00,
2013-06-23 17:47:00,88.4,48.1,29.50,NNE,25,0.0,5.0,25,0.00,,---,0.00,VWS V14.00,2013-06-23 22:47:00,
2013-06-23 17:50:00,87.8,49.7,29.50,NNE,21,0.0,5.0,27,0.00,,---,0.00,VWS V14.00,2013-06-23 22:50:00,
2013-06-23 17:51:00,87.8,48.7,29.50,NNE,23,0.0,5.0,26,0.00,,---,0.00,VWS V14.00,2013-06-23 22:51:00,
2013-06-23 17:52:00,87.6,48.5,29.50,NNE,23,0.0,5.0,26,0.00,,---,0.00,VWS V14.00,2013-06-23 22:52:00,
2013-06-23 17:55:00,87.4,48.3,29.50,NNE,23,0.0,5.0,26,0.00,,---,0.00,VWS V14.00,2013-06-23 22:55:00,
2013-06-23 17:56:00,87.2,48.2,29.50,NNE,23,0.0,5.0,26,0.00,,---,0.00,VWS V14.00,2013-06-23 22:56:00,
2013-06-23 17:57:00,87.0,48.0,29.50,NNE,24,0.0,5.0,26,0.00,,---,0.00,VWS V14.00,2013-06-23 22:57:00,
2013-06-23 18:00:00,86.7,47.8,29.51,NNE,25,0.0,0.0,26,0.00,,---,0.00,VWS V14.00,2013-06-23 23:00:00,
2013-06-23 18:01:00,86.7,47.8,29.51,NNE,25,0.0,0.0,26,0.00,,---,0.00,VWS V14.00,2013-06-23 23:01:00,
2013-06-23 18:02:00,86.7,47.8,29.51,NNE,25,0.0,0.0,26,0.00,,---,0.00,VWS V14.00,2013-06-23 23:02:00,
2013-06-23 18:03:00,86.7,47.8,29.51,NNE,25,0.0,0.0,26,0.00,,---,0.00,VWS V14.00,2013-06-23 23:03:00,
2013-06-23 18:05:00,87.0,49.0,29.51,NNE,25,0.0,0.0,27,0.00,,---,0.00,VWS V14.00,2013-06-23 23:05:00,
2013-06-23 18:06:00,87.6,49.5,29.51,NNE,25,0.0,0.0,27,0.00,,---,0.00,VWS V14.00,2013-06-23 23:06:00,
2013-06-23 18:07:00,87.8,47.6,29.51,NNE,24,0.0,0.0,25,0.00,,---,0.00,VWS V14.00,2013-06-23 23:07:00,
2013-06-23 18:08:00,88.0,47.8,29.51,NNE,23,0.0,0.0,25,0.00,,---,0.00,VWS V14.00,2013-06-23 23:08:00,
2013-06-23 18:11:00,88.6,47.2,29.51,NNE,25,0.0,3.0,24,0.00,,---,0.00,VWS V14.00,2013-06-23 23:11:00,
2013-06-23 18:12:00,88.8,47.4,29.51,NE,40,0.0,3.0,24,0.00,,---,0.00,VWS V14.00,2013-06-23 23:12:00,
2013-06-23 18:13:00,88.8,47.4,29.51,NE,40,0.0,3.0,24,0.00,,---,0.00,VWS V14.00,2013-06-23 23:13:00,
2013-06-23 18:16:00,88.4,47.1,29.51,NE,38,0.0,3.0,24,0.00,,---,0.00,VWS V14.00,2013-06-23 23:16:00,
2013-06-23 18:17:00,88.2,46.9,29.51,NE,38,0.0,3.0,24,0.00,,---,0.00,VWS V14.00,2013-06-23 23:17:00,
2013-06-23 18:18:00,88.0,46.7,29.51,NE,38,0.0,3.0,24,0.00,,---,0.00,VWS V14.00,2013-06-23 23:18:00,
2013-06-23 18:21:00,87.8,46.5,29.51,NE,38,0.0,3.0,24,0.00,,---,0.00,VWS V14.00,2013-06-23 23:21:00,
2013-06-23 18:22:00,87.8,46.5,29.51,NE,38,0.0,3.0,24,0.00,,---,0.00,VWS V14.00,2013-06-23 23:22:00,
2013-06-23 18:23:00,88.0,47.8,29.51,NE,35,0.0,3.0,25,0.00,,---,0.00,VWS V14.00,2013-06-23 23:23:00,
2013-06-23 18:26:00,88.6,50.4,29.51,NNE,20,0.0,3.0,27,0.00,,---,0.00,VWS V14.00,2013-06-23 23:26:00,
2013-06-23 18:27:00,88.6,51.4,29.51,NNE,20,0.0,3.0,28,0.00,,---,0.00,VWS V14.00,2013-06-23 23:27:00,
2013-06-23 18:28:00,88.8,50.5,29.51,North,359,0.0,3.0,27,0.00,,---,0.00,VWS V14.00,2013-06-23 23:28:00,
2013-06-23 18:31:00,89.3,50.0,29.50,North,353,0.0,0.0,26,0.00,,---,0.00,VWS V14.00,2013-06-23 23:31:00,
2013-06-23 18:32:00,89.3,50.0,29.50,North,353,0.0,0.0,26,0.00,,---,0.00,VWS V14.00,2013-06-23 23:32:00,
2013-06-23 18:33:00,89.3,47.8,29.50,North,353,0.0,0.0,24,0.00,,---,0.00,VWS V14.00,2013-06-23 23:33:00,
2013-06-23 18:34:00,89.3,47.8,29.50,North,353,0.0,0.0,24,0.00,,---,0.00,VWS V14.00,2013-06-23 23:34:00,
2013-06-23 18:36:00,89.7,48.2,29.50,North,353,0.0,0.0,24,0.00,,---,0.00,VWS V14.00,2013-06-23 23:36:00,
2013-06-23 18:37:00,89.9,49.4,29.50,North,353,0.0,0.0,25,0.00,,---,0.00,VWS V14.00,2013-06-23 23:37:00,
2013-06-23 18:38:00,90.1,49.6,29.50,North,353,0.0,0.0,25,0.00,,---,0.00,VWS V14.00,2013-06-23 23:38:00,
2013-06-23 18:39:00,89.9,49.4,29.50,North,354,0.0,0.0,25,0.00,,---,0.00,VWS V14.00,2013-06-23 23:39:00,
2013-06-23 18:41:00,89.5,49.1,29.50,North,356,0.0,0.0,25,0.00,,---,0.00,VWS V14.00,2013-06-23 23:41:00,
2013-06-23 18:42:00,89.5,48.0,29.50,North,357,0.0,0.0,24,0.00,,---,0.00,VWS V14.00,2013-06-23 23:42:00,
2013-06-23 18:43:00,89.0,48.7,29.50,NNE,20,1.0,1.0,25,0.00,,---,0.00,VWS V14.00,2013-06-23 23:43:00,
2013-06-23 18:45:00,88.6,46.1,29.50,NNE,23,0.0,2.0,23,0.00,,---,0.00,VWS V14.00,2013-06-23 23:45:00,
2013-06-23 18:46:00,88.4,47.1,29.50,NNE,23,0.0,2.0,24,0.00,,---,0.00,VWS V14.00,2013-06-23 23:46:00,
2013-06-23 18:48:00,88.2,46.9,29.50,NNE,23,0.0,2.0,24,0.00,,---,0.00,VWS V14.00,2013-06-23 23:48:00,
2013-06-23 18:49:00,88.0,45.6,29.50,NNE,23,0.0,2.0,23,0.00,,---,0.00,VWS V14.00,2013-06-23 23:49:00,
2013-06-23 18:51:00,88.0,46.7,29.50,NNE,23,0.0,2.0,24,0.00,,---,0.00,VWS V14.00,2013-06-23 23:51:00,
2013-06-23 18:52:00,87.8,47.6,29.50,NNE,23,0.0,2.0,25,0.00,,---,0.00,VWS V14.00,2013-06-23 23:52:00,
2013-06-23 18:53:00,87.8,46.5,29.50,NNE,23,0.0,2.0,24,0.00,,---,0.00,VWS V14.00,2013-06-23 23:53:00,
2013-06-23 18:54:00,87.8,47.6,29.50,NNE,23,0.0,2.0,25,0.00,,---,0.00,VWS V14.00,2013-06-23 23:54:00,
2013-06-23 18:56:00,87.6,48.5,29.50,NNE,21,0.0,2.0,26,0.00,,---,0.00,VWS V14.00,2013-06-23 23:56:00,
2013-06-23 18:57:00,87.4,48.3,29.50,NNE,21,0.0,2.0,26,0.00,,---,0.00,VWS V14.00,2013-06-23 23:57:00,
2013-06-23 18:58:00,87.4,48.3,29.50,NNE,21,0.0,2.0,26,0.00,,---,0.00,VWS V14.00,2013-06-23 23:58:00,
2013-06-23 18:59:00,87.2,49.2,29.51,NNE,21,0.0,2.0,27,0.00,,---,0.00,VWS V14.00,2013-06-23 23:59:00,
2013-06-23 19:01:00,86.7,49.7,29.51,North,7,1.0,1.0,28,0.00,,---,0.00,VWS V14.00,2013-06-24 00:01:00,
2013-06-23 19:02:00,86.7,48.8,29.51,NNE,14,0.0,2.0,27,0.00,,---,0.00,VWS V14.00,2013-06-24 00:02:00,
2013-06-23 19:03:00,86.5,48.6,29.51,NNE,14,0.0,2.0,27,0.00,,---,0.00,VWS V14.00,2013-06-24 00:03:00,
2013-06-23 19:04:00,86.5,48.6,29.51,NNE,14,0.0,2.0,27,0.00,,---,0.00,VWS V14.00,2013-06-24 00:04:00,
2013-06-23 19:06:00,86.3,49.4,29.51,NNE,13,0.0,2.0,28,0.00,,---,0.00,VWS V14.00,2013-06-24 00:06:00,
2013-06-23 19:07:00,86.3,49.4,29.51,NNE,14,0.0,2.0,28,0.00,,---,0.00,VWS V14.00,2013-06-24 00:07:00,
2013-06-23 19:08:00,86.1,49.2,29.51,North,6,0.0,2.0,28,0.00,,---,0.00,VWS V14.00,2013-06-24 00:08:00,
2013-06-23 19:09:00,85.7,48.9,29.51,North,7,0.0,2.0,28,0.00,,---,0.00,VWS V14.00,2013-06-24 00:09:00,
2013-06-23 19:11:00,85.5,49.7,29.51,North,7,0.0,2.0,29,0.00,,---,0.00,VWS V14.00,2013-06-24 00:11:00,
2013-06-23 19:12:00,85.5,49.7,29.51,North,7,0.0,2.0,29,0.00,,---,0.00,VWS V14.00,2013-06-24 00:12:00,
2013-06-23 19:13:00,85.3,49.5,29.53,North,7,0.0,2.0,29,0.00,,---,0.00,VWS V14.00,2013-06-24 00:13:00,
2013-06-23 19:14:00,85.1,49.3,29.53,North,7,0.0,2.0,29,0.00,,---,0.00,VWS V14.00,2013-06-24 00:14:00,
2013-06-23 19:17:00,85.1,49.3,29.53,North,7,0.0,2.0,29,0.00,,---,0.00,VWS V14.00,2013-06-24 00:17:00,
2013-06-23 19:19:00,84.9,49.1,29.53,North,7,0.0,2.0,29,0.00,,---,0.00,VWS V14.00,2013-06-24 00:19:00,
2013-06-23 19:20:00,84.9,48.2,29.53,North,7,0.0,2.0,28,0.00,,---,0.00,VWS V14.00,2013-06-24 00:20:00,
2013-06-23 19:22:00,85.1,48.4,29.53,North,7,0.0,2.0,28,0.00,,---,0.00,VWS V14.00,2013-06-24 00:22:00,
2013-06-23 19:23:00,85.1,50.2,29.53,North,7,0.0,2.0,30,0.00,,---,0.00,VWS V14.00,2013-06-24 00:23:00,
2013-06-23 19:24:00,84.9,50.0,29.53,North,7,0.0,2.0,30,0.00,,---,0.00,VWS V14.00,2013-06-24 00:24:00,
2013-06-23 19:25:00,84.9,50.0,29.53,North,7,0.0,2.0,30,0.00,,---,0.00,VWS V14.00,2013-06-24 00:25:00,
2013-06-23 19:27:00,84.9,49.1,29.53,NNE,14,0.0,2.0,29,0.00,,---,0.00,VWS V14.00,2013-06-24 00:27:00,
2013-06-23 19:28:00,84.9,47.2,29.53,NNE,14,0.0,2.0,27,0.00,,---,0.00,VWS V14.00,2013-06-24 00:28:00,
2013-06-23 19:29:00,84.9,49.1,29.54,NNE,14,0.0,0.0,29,0.00,,---,0.00,VWS V14.00,2013-06-24 00:29:00,
2013-06-23 19:30:00,84.9,49.1,29.54,NNE,14,0.0,0.0,29,0.00,,---,0.00,VWS V14.00,2013-06-24 00:30:00,
2013-06-23 19:31:00,85.1,48.4,29.54,NNE,14,0.0,0.0,28,0.00,,---,0.00,VWS V14.00,2013-06-24 00:31:00,
2013-06-23 19:32:00,85.1,49.3,29.54,NNE,14,0.0,0.0,29,0.00,,---,0.00,VWS V14.00,2013-06-24 00:32:00,
2013-06-23 19:33:00,85.3,49.5,29.54,NNE,14,0.0,0.0,29,0.00,,---,0.00,VWS V14.00,2013-06-24 00:33:00,
2013-06-23 19:35:00,85.5,49.7,29.54,NNE,14,0.0,0.0,29,0.00,,---,0.00,VWS V14.00,2013-06-24 00:35:00,
2013-06-23 19:36:00,85.5,49.7,29.54,NNE,14,0.0,0.0,29,0.00,,---,0.00,VWS V14.00,2013-06-24 00:36:00,
2013-06-23 19:37:00,85.7,49.8,29.54,NNE,14,0.0,0.0,29,0.00,,---,0.00,VWS V14.00,2013-06-24 00:37:00,
2013-06-23 19:38:00,85.9,49.0,29.54,NNE,14,0.0,0.0,28,0.00,,---,0.00,VWS V14.00,2013-06-24 00:38:00,
2013-06-23 19:40:00,86.1,49.2,29.54,NNE,14,0.0,0.0,28,0.00,,---,0.00,VWS V14.00,2013-06-24 00:40:00,
2013-06-23 19:41:00,86.1,48.2,29.54,NNE,14,0.0,0.0,27,0.00,,---,0.00,VWS V14.00,2013-06-24 00:41:00,
2013-06-23 19:42:00,86.1,48.2,29.54,NNE,14,0.0,0.0,27,0.00,,---,0.00,VWS V14.00,2013-06-24 00:42:00,
2013-06-23 19:43:00,86.1,49.2,29.52,NNE,14,0.0,0.0,28,0.00,,---,0.00,VWS V14.00,2013-06-24 00:43:00,
2013-06-23 19:45:00,86.1,50.2,29.52,NNE,14,0.0,0.0,29,0.00,,---,0.00,VWS V14.00,2013-06-24 00:45:00,
2013-06-23 19:46:00,86.1,49.2,29.52,NNE,14,0.0,0.0,28,0.00,,---,0.00,VWS V14.00,2013-06-24 00:46:00,
2013-06-23 19:47:00,86.1,50.2,29.52,NNE,14,0.0,0.0,29,0.00,,---,0.00,VWS V14.00,2013-06-24 00:47:00,
2013-06-23 19:49:00,85.9,50.0,29.52,NNE,14,0.0,0.0,29,0.00,,---,0.00,VWS V14.00,2013-06-24 00:49:00,
2013-06-23 19:51:00,85.7,48.9,29.52,NNE,13,0.0,0.0,28,0.00,,---,0.00,VWS V14.00,2013-06-24 00:51:00,
2013-06-23 19:52:00,85.3,52.1,29.52,NW,305,0.0,0.0,32,0.00,,---,0.00,VWS V14.00,2013-06-24 00:52:00,
2013-06-23 19:54:00,85.1,52.8,29.52,NW,305,0.0,0.0,33,0.00,,---,0.00,VWS V14.00,2013-06-24 00:54:00,
2013-06-23 19:56:00,84.5,52.3,29.52,NW,305,0.0,0.0,33,0.00,,---,0.00,VWS V14.00,2013-06-24 00:56:00,
2013-06-23 19:57:00,84.3,52.9,29.52,NW,305,0.0,0.0,34,0.00,,---,0.00,VWS V14.00,2013-06-24 00:57:00,
2013-06-23 19:59:00,84.1,53.5,29.53,NW,305,0.0,0.0,35,0.00,,---,0.00,VWS V14.00,2013-06-24 00:59:00,
2013-06-23 20:01:00,83.8,54.0,29.53,NW,305,0.0,0.0,36,0.00,,---,0.00,VWS V14.00,2013-06-24 01:01:00,
2013-06-23 20:03:00,83.2,53.5,29.53,NW,305,0.0,0.0,36,0.00,,---,0.00,VWS V14.00,2013-06-24 01:03:00,
2013-06-23 20:04:00,83.0,53.3,29.53,WNW,301,0.0,0.0,36,0.00,,---,0.00,VWS V14.00,2013-06-24 01:04:00,
2013-06-23 20:06:00,82.8,53.9,29.53,WNW,301,0.0,0.0,37,0.00,,---,0.00,VWS V14.00,2013-06-24 01:06:00,
2013-06-23 20:07:00,82.6,54.5,29.53,WNW,301,0.0,0.0,38,0.00,,---,0.00,VWS V14.00,2013-06-24 01:07:00,
2013-06-23 20:08:00,82.4,54.3,29.53,WNW,301,0.0,0.0,38,0.00,,---,0.00,VWS V14.00,2013-06-24 01:08:00,
2013-06-23 20:09:00,82.2,52.6,29.53,WNW,301,0.0,0.0,36,0.00,,---,0.00,VWS V14.00,2013-06-24 01:09:00,
2013-06-23 20:11:00,81.8,53.7,29.53,WNW,301,0.0,0.0,38,0.00,,---,0.00,VWS V14.00,2013-06-24 01:11:00,
2013-06-23 20:12:00,81.8,53.0,29.53,WNW,301,0.0,0.0,37,0.00,,---,0.00,VWS V14.00,2013-06-24 01:12:00,
2013-06-23 20:13:00,81.6,52.8,29.53,WNW,301,0.0,0.0,37,0.00,,---,0.00,VWS V14.00,2013-06-24 01:13:00,
2013-06-23 20:14:00,81.6,52.8,29.53,WNW,301,0.0,0.0,37,0.00,,---,0.00,VWS V14.00,2013-06-24 01:14:00,
2013-06-23 20:16:00,81.4,52.7,29.53,WNW,301,0.0,0.0,37,0.00,,---,0.00,VWS V14.00,2013-06-24 01:16:00,
2013-06-23 20:17:00,81.4,52.7,29.53,WNW,301,0.0,0.0,37,0.00,,---,0.00,VWS V14.00,2013-06-24 01:17:00,
2013-06-23 20:18:00,81.2,53.2,29.53,WNW,301,0.0,0.0,38,0.00,,---,0.00,VWS V14.00,2013-06-24 01:18:00,
2013-06-23 20:19:00,81.1,52.4,29.53,WNW,301,0.0,0.0,37,0.00,,---,0.00,VWS V14.00,2013-06-24 01:19:00,
2013-06-23 20:21:00,81.1,54.5,29.53,WNW,301,0.0,0.0,40,0.00,,---,0.00,VWS V14.00,2013-06-24 01:21:00,
2013-06-23 20:22:00,80.9,53.7,29.53,WNW,301,0.0,0.0,39,0.00,,---,0.00,VWS V14.00,2013-06-24 01:22:00,
2013-06-23 20:23:00,80.9,53.7,29.53,WNW,301,0.0,0.0,39,0.00,,---,0.00,VWS V14.00,2013-06-24 01:23:00,
2013-06-23 20:24:00,80.7,53.5,29.53,WNW,301,0.0,0.0,39,0.00,,---,0.00,VWS V14.00,2013-06-24 01:24:00,
2013-06-23 20:26:00,80.5,52.6,29.53,WNW,301,0.0,0.0,38,0.00,,---,0.00,VWS V14.00,2013-06-24 01:26:00,
2013-06-23 20:27:00,80.5,53.3,29.53,WNW,301,0.0,0.0,39,0.00,,---,0.00,VWS V14.00,2013-06-24 01:27:00,
2013-06-23 20:28:00,80.5,54.0,29.53,WNW,301,0.0,0.0,40,0.00,,---,0.00,VWS V14.00,2013-06-24 01:28:00,
2013-06-23 20:29:00,80.5,54.0,29.54,WNW,301,0.0,0.0,40,0.00,,---,0.00,VWS V14.00,2013-06-24 01:29:00,
2013-06-23 20:32:00,80.1,53.6,29.54,WNW,301,0.0,0.0,40,0.00,,---,0.00,VWS V14.00,2013-06-24 01:32:00,
2013-06-23 20:33:00,79.9,53.5,29.54,WNW,301,0.0,0.0,40,0.00,,---,0.00,VWS V14.00,2013-06-24 01:33:00,
2013-06-23 20:35:00,79.9,53.5,29.54,WNW,301,0.0,0.0,40,0.00,,---,0.00,VWS V14.00,2013-06-24 01:35:00,
2013-06-23 20:37:00,79.8,53.4,29.54,WNW,301,0.0,0.0,40,0.00,,---,0.00,VWS V14.00,2013-06-24 01:37:00,
2013-06-23 20:38:00,79.8,54.0,29.54,WNW,301,0.0,0.0,41,0.00,,---,0.00,VWS V14.00,2013-06-24 01:38:00,
2013-06-23 20:40:00,79.6,53.8,29.54,WNW,301,0.0,0.0,41,0.00,,---,0.00,VWS V14.00,2013-06-24 01:40:00,
2013-06-23 20:42:00,79.6,54.5,29.54,WNW,301,0.0,0.0,42,0.00,,---,0.00,VWS V14.00,2013-06-24 01:42:00,
2013-06-23 20:43:00,79.6,54.5,29.54,WNW,301,0.0,0.0,42,0.00,,---,0.00,VWS V14.00,2013-06-24 01:43:00,
2013-06-23 20:44:00,79.4,54.3,29.55,WNW,301,0.0,0.0,42,0.00,,---,0.00,VWS V14.00,2013-06-24 01:44:00,
2013-06-23 20:45:00,79.4,55.0,29.55,WNW,301,0.0,0.0,43,0.00,,---,0.00,VWS V14.00,2013-06-24 01:45:00,
2013-06-23 20:47:00,79.2,54.2,29.55,WNW,301,0.0,0.0,42,0.00,,---,0.00,VWS V14.00,2013-06-24 01:47:00,
2013-06-23 20:48:00,79.2,53.5,29.55,WNW,301,0.0,0.0,41,0.00,,---,0.00,VWS V14.00,2013-06-24 01:48:00,
2013-06-23 20:49:00,79.2,52.8,29.55,WNW,301,0.0,0.0,40,0.00,,---,0.00,VWS V14.00,2013-06-24 01:49:00,
2013-06-23 20:50:00,79.2,53.5,29.55,WNW,301,0.0,0.0,41,0.00,,---,0.00,VWS V14.00,2013-06-24 01:50:00,
2013-06-23 20:52:00,79.2,54.2,29.55,WNW,301,0.0,0.0,42,0.00,,---,0.00,VWS V14.00,2013-06-24 01:52:00,
2013-06-23 20:53:00,79.0,54.0,29.55,WNW,301,0.0,0.0,42,0.00,,---,0.00,VWS V14.00,2013-06-24 01:53:00,
2013-06-23 20:54:00,79.0,54.0,29.55,WNW,301,0.0,0.0,42,0.00,,---,0.00,VWS V14.00,2013-06-24 01:54:00,
2013-06-23 20:55:00,79.0,54.0,29.55,WNW,301,0.0,0.0,42,0.00,,---,0.00,VWS V14.00,2013-06-24 01:55:00,
2013-06-23 20:57:00,78.8,53.8,29.55,WNW,301,0.0,0.0,42,0.00,,---,0.00,VWS V14.00,2013-06-24 01:57:00,
2013-06-23 20:58:00,78.6,53.6,29.56,WNW,301,0.0,0.0,42,0.00,,---,0.00,VWS V14.00,2013-06-24 01:58:00,
2013-06-23 20:59:00,78.6,54.9,29.56,WNW,302,0.0,0.0,44,0.00,,---,0.00,VWS V14.00,2013-06-24 01:59:00,
2013-06-23 21:00:00,78.8,53.8,29.56,SE,128,0.0,0.0,42,0.00,,---,0.00,VWS V14.00,2013-06-24 02:00:00,
2013-06-23 21:02:00,79.6,54.5,29.56,East,95,2.0,2.0,42,0.00,,---,0.00,VWS V14.00,2013-06-24 02:02:00,
2013-06-23 21:04:00,79.9,55.4,29.56,East,89,2.0,7.0,43,0.00,,---,0.00,VWS V14.00,2013-06-24 02:04:00,
2013-06-23 21:05:00,80.5,56.6,29.56,East,100,1.0,7.0,44,0.00,,---,0.00,VWS V14.00,2013-06-24 02:05:00,
2013-06-23 21:08:00,80.7,55.5,29.56,East,95,7.0,7.0,42,0.00,,---,0.00,VWS V14.00,2013-06-24 02:08:00,
2013-06-23 21:09:00,80.9,55.7,29.56,East,97,5.0,7.0,42,0.00,,---,0.00,VWS V14.00,2013-06-24 02:09:00,
2013-06-23 21:10:00,81.1,56.5,29.56,East,89,2.0,7.0,43,0.00,,---,0.00,VWS V14.00,2013-06-24 02:10:00,
2013-06-23 21:13:00,80.9,56.3,29.56,East,86,0.0,7.0,43,0.00,,---,0.00,VWS V14.00,2013-06-24 02:13:00,
2013-06-23 21:14:00,80.9,56.3,29.50,East,86,0.0,7.0,43,0.00,,---,0.00,VWS V14.00,2013-06-24 02:14:00,
2013-06-23 21:16:00,80.7,56.8,29.50,East,88,0.0,7.0,44,0.00,,---,0.00,VWS V14.00,2013-06-24 02:16:00,
2013-06-23 21:18:00,80.7,56.2,29.50,East,88,0.0,7.0,43,0.00,,---,0.00,VWS V14.00,2013-06-24 02:18:00,
2013-06-23 21:19:00,80.5,56.0,29.50,East,88,0.0,7.0,43,0.00,,---,0.00,VWS V14.00,2013-06-24 02:19:00,
2013-06-23 21:21:00,80.5,57.2,29.50,East,95,0.0,7.0,45,0.00,,---,0.00,VWS V14.00,2013-06-24 02:21:00,
2013-06-23 21:23:00,80.3,56.4,29.50,East,95,0.0,7.0,44,0.00,,---,0.00,VWS V14.00,2013-06-24 02:23:00,
2013-06-23 21:24:00,80.3,56.4,29.50,East,95,0.0,7.0,44,0.00,,---,0.00,VWS V14.00,2013-06-24 02:24:00,
2013-06-23 21:25:00,80.1,56.2,29.50,East,95,0.0,7.0,44,0.00,,---,0.00,VWS V14.00,2013-06-24 02:25:00,
2013-06-23 21:26:00,80.1,56.2,29.50,East,95,0.0,7.0,44,0.00,,---,0.00,VWS V14.00,2013-06-24 02:26:00,
2013-06-23 21:28:00,79.9,56.1,29.50,East,95,0.0,7.0,44,0.00,,---,0.00,VWS V14.00,2013-06-24 02:28:00,
2013-06-23 21:29:00,79.9,56.1,29.51,East,95,0.0,7.0,44,0.00,,---,0.00,VWS V14.00,2013-06-24 02:29:00,
2013-06-23 21:30:00,79.8,56.0,29.51,East,95,0.0,0.0,44,0.00,,---,0.00,VWS V14.00,2013-06-24 02:30:00,
2013-06-23 21:31:00,79.8,56.6,29.51,East,95,0.0,0.0,45,0.00,,---,0.00,VWS V14.00,2013-06-24 02:31:00,
2013-06-23 21:33:00,79.6,56.4,29.51,East,95,0.0,0.0,45,0.00,,---,0.00,VWS V14.00,2013-06-24 02:33:00,
2013-06-23 21:34:00,79.4,56.8,29.51,East,95,0.0,0.0,46,0.00,,---,0.00,VWS V14.00,2013-06-24 02:34:00,
2013-06-23 21:35:00,79.4,56.8,29.51,East,95,0.0,0.0,46,0.00,,---,0.00,VWS V14.00,2013-06-24 02:35:00,
2013-06-23 21:36:00,79.2,56.7,29.51,East,95,0.0,0.0,46,0.00,,---,0.00,VWS V14.00,2013-06-24 02:36:00,
2013-06-23 21:38:00,79.0,56.5,29.51,East,95,0.0,0.0,46,0.00,,---,0.00,VWS V14.00,2013-06-24 02:38:00,
2013-06-23 21:40:00,79.0,56.5,29.51,East,95,0.0,0.0,46,0.00,,---,0.00,VWS V14.00,2013-06-24 02:40:00,
2013-06-23 21:41:00,78.8,56.3,29.51,East,95,0.0,0.0,46,0.00,,---,0.00,VWS V14.00,2013-06-24 02:41:00,
2013-06-23 21:43:00,78.6,56.1,29.51,East,95,0.0,0.0,46,0.00,,---,0.00,VWS V14.00,2013-06-24 02:43:00,
2013-06-23 21:45:00,78.5,56.0,29.51,East,95,0.0,0.0,46,0.00,,---,0.00,VWS V14.00,2013-06-24 02:45:00,
2013-06-23 21:46:00,78.5,56.0,29.51,East,95,0.0,0.0,46,0.00,,---,0.00,VWS V14.00,2013-06-24 02:46:00,
2013-06-23 21:48:00,78.5,56.0,29.51,East,95,0.0,0.0,46,0.00,,---,0.00,VWS V14.00,2013-06-24 02:48:00,
2013-06-23 21:50:00,78.3,56.4,29.51,East,95,0.0,0.0,47,0.00,,---,0.00,VWS V14.00,2013-06-24 02:50:00,
2013-06-23 21:51:00,78.3,56.4,29.51,East,95,0.0,0.0,47,0.00,,---,0.00,VWS V14.00,2013-06-24 02:51:00,
2013-06-23 21:53:00,78.1,56.2,29.51,East,95,0.0,0.0,47,0.00,,---,0.00,VWS V14.00,2013-06-24 02:53:00,
2013-06-23 21:55:00,77.9,56.1,29.51,East,95,0.0,0.0,47,0.00,,---,0.00,VWS V14.00,2013-06-24 02:55:00,
2013-06-23 21:56:00,77.9,56.1,29.51,East,95,0.0,0.0,47,0.00,,---,0.00,VWS V14.00,2013-06-24 02:56:00,
2013-06-23 21:59:00,77.9,56.7,29.52,East,95,0.0,0.0,48,0.00,,---,0.00,VWS V14.00,2013-06-24 02:59:00,
2013-06-23 22:00:00,77.7,56.5,29.52,East,95,0.0,0.0,48,0.00,,---,0.00,VWS V14.00,2013-06-24 03:00:00,
2013-06-23 22:01:00,77.7,56.5,29.52,East,95,0.0,0.0,48,0.00,,---,0.00,VWS V14.00,2013-06-24 03:01:00,
2013-06-23 22:04:00,77.7,56.5,29.52,East,95,0.0,0.0,48,0.00,,---,0.00,VWS V14.00,2013-06-24 03:04:00,
2013-06-23 22:05:00,77.6,56.4,29.52,East,95,0.0,0.0,48,0.00,,---,0.00,VWS V14.00,2013-06-24 03:05:00,